sensor_id;sensor_type;location;lat;lon;timestamp;P1;durP1;ratioP1;P2;durP2;ratioP2
673;SDS011;319;48.764;9.174;2023-08-24T00:01:37;10.30;;;10.00;;
673;SDS011;319;48.764;9.174;2023-08-24T00:04:04;10.10;;;9.80;;
673;SDS011;319;48.764;9.174;2023-08-24T00:06:32;10.70;;;10.40;;
673;SDS011;319;48.764;9.174;2023-08-24T00:08:59;8.97;;;8.77;;
673;SDS011;319;48.764;9.174;2023-08-24T00:11:26;8.27;;;8.07;;
673;SDS011;319;48.764;9.174;2023-08-24T00:13:53;9.20;;;9.00;;
673;SDS011;319;48.764;9.174;2023-08-24T00:16:21;9.10;;;8.90;;
673;SDS011;319;48.764;9.174;2023-08-24T00:18:49;9.27;;;9.07;;
673;SDS011;319;48.764;9.174;2023-08-24T00:21:16;9.20;;;9.00;;
673;SDS011;319;48.764;9.174;2023-08-24T00:23:44;9.50;;;9.30;;
673;SDS011;319;48.764;9.174;2023-08-24T00:26:11;7.60;;;7.40;;
673;SDS011;319;48.764;9.174;2023-08-24T00:28:38;3.27;;;3.17;;
673;SDS011;319;48.764;9.174;2023-08-24T00:31:05;2.17;;;2.17;;
673;SDS011;319;48.764;9.174;2023-08-24T00:33:33;1.20;;;1.20;;
673;SDS011;319;48.764;9.174;2023-08-24T00:36:00;1.00;;;1.00;;
673;SDS011;319;48.764;9.174;2023-08-24T00:38:28;1.20;;;1.20;;
673;SDS011;319;48.764;9.174;2023-08-24T00:40:55;1.00;;;1.00;;
673;SDS011;319;48.764;9.174;2023-08-24T00:43:24;0.80;;;0.80;;
673;SDS011;319;48.764;9.174;2023-08-24T00:45:51;0.90;;;0.90;;
673;SDS011;319;48.764;9.174;2023-08-24T00:48:18;0.80;;;0.80;;
673;SDS011;319;48.764;9.174;2023-08-24T00:50:52;2.10;;;2.10;;
673;SDS011;319;48.764;9.174;2023-08-24T00:53:19;7.07;;;6.87;;
673;SDS011;319;48.764;9.174;2023-08-24T00:55:47;7.10;;;6.90;;
673;SDS011;319;48.764;9.174;2023-08-24T00:58:14;6.10;;;6.00;;
673;SDS011;319;48.764;9.174;2023-08-24T01:00:41;5.60;;;5.50;;
673;SDS011;319;48.764;9.174;2023-08-24T01:03:08;6.17;;;6.07;;
673;SDS011;319;48.764;9.174;2023-08-24T01:05:35;6.13;;;6.03;;
673;SDS011;319;48.764;9.174;2023-08-24T01:08:03;6.30;;;6.10;;
673;SDS011;319;48.764;9.174;2023-08-24T01:10:38;6.67;;;6.47;;
673;SDS011;319;48.764;9.174;2023-08-24T01:13:11;8.43;;;8.23;;
673;SDS011;319;48.764;9.174;2023-08-24T01:15:46;1.20;;;1.20;;
673;SDS011;319;48.764;9.174;2023-08-24T01:18:18;1.43;;;1.43;;
673;SDS011;319;48.764;9.174;2023-08-24T01:20:47;1.90;;;1.90;;
673;SDS011;319;48.764;9.174;2023-08-24T01:23:27;2.20;;;2.20;;
673;SDS011;319;48.764;9.174;2023-08-24T01:26:04;2.97;;;2.87;;
673;SDS011;319;48.764;9.174;2023-08-24T01:28:33;3.80;;;3.70;;
673;SDS011;319;48.764;9.174;2023-08-24T01:31:01;5.27;;;5.17;;
673;SDS011;319;48.764;9.174;2023-08-24T01:33:29;6.20;;;6.10;;
673;SDS011;319;48.764;9.174;2023-08-24T01:35:56;5.33;;;5.23;;
673;SDS011;319;48.764;9.174;2023-08-24T01:38:23;5.83;;;5.73;;
673;SDS011;319;48.764;9.174;2023-08-24T01:40:53;6.70;;;6.50;;
673;SDS011;319;48.764;9.174;2023-08-24T01:43:33;6.10;;;6.00;;
673;SDS011;319;48.764;9.174;2023-08-24T01:46:02;6.27;;;6.17;;
673;SDS011;319;48.764;9.174;2023-08-24T01:48:30;5.80;;;5.70;;
673;SDS011;319;48.764;9.174;2023-08-24T01:50:58;5.70;;;5.60;;
673;SDS011;319;48.764;9.174;2023-08-24T01:53:27;7.00;;;6.80;;
673;SDS011;319;48.764;9.174;2023-08-24T01:55:56;6.37;;;6.20;;
673;SDS011;319;48.764;9.174;2023-08-24T01:58:23;6.20;;;6.10;;
673;SDS011;319;48.764;9.174;2023-08-24T02:00:51;6.40;;;6.20;;
673;SDS011;319;48.764;9.174;2023-08-24T02:03:18;6.30;;;6.20;;
673;SDS011;319;48.764;9.174;2023-08-24T02:05:45;6.43;;;6.23;;
673;SDS011;319;48.764;9.174;2023-08-24T02:08:12;5.90;;;5.80;;
673;SDS011;319;48.764;9.174;2023-08-24T02:10:39;6.20;;;6.10;;
673;SDS011;319;48.764;9.174;2023-08-24T02:13:06;5.90;;;5.80;;
673;SDS011;319;48.764;9.174;2023-08-24T02:15:33;5.70;;;5.60;;
673;SDS011;319;48.764;9.174;2023-08-24T02:18:01;5.83;;;5.73;;
673;SDS011;319;48.764;9.174;2023-08-24T02:20:29;5.50;;;5.40;;
673;SDS011;319;48.764;9.174;2023-08-24T02:22:56;5.70;;;5.60;;
673;SDS011;319;48.764;9.174;2023-08-24T02:25:23;5.80;;;5.70;;
673;SDS011;319;48.764;9.174;2023-08-24T02:27:50;5.10;;;5.00;;
673;SDS011;319;48.764;9.174;2023-08-24T02:30:17;5.90;;;5.80;;
673;SDS011;319;48.764;9.174;2023-08-24T02:32:44;5.60;;;5.50;;
673;SDS011;319;48.764;9.174;2023-08-24T02:35:12;0.80;;;0.80;;
673;SDS011;319;48.764;9.174;2023-08-24T02:37:39;1.90;;;1.90;;
673;SDS011;319;48.764;9.174;2023-08-24T02:40:06;0.90;;;0.90;;
673;SDS011;319;48.764;9.174;2023-08-24T02:42:34;0.80;;;0.80;;
673;SDS011;319;48.764;9.174;2023-08-24T02:45:02;0.90;;;0.90;;
673;SDS011;319;48.764;9.174;2023-08-24T02:47:29;0.80;;;0.80;;
673;SDS011;319;48.764;9.174;2023-08-24T02:49:56;0.80;;;0.80;;
673;SDS011;319;48.764;9.174;2023-08-24T02:52:24;0.80;;;0.80;;
673;SDS011;319;48.764;9.174;2023-08-24T02:54:51;0.80;;;0.80;;
673;SDS011;319;48.764;9.174;2023-08-24T02:57:18;0.80;;;0.80;;
673;SDS011;319;48.764;9.174;2023-08-24T02:59:45;0.80;;;0.80;;
673;SDS011;319;48.764;9.174;2023-08-24T03:02:12;0.90;;;0.90;;
673;SDS011;319;48.764;9.174;2023-08-24T03:04:39;0.80;;;0.80;;
673;SDS011;319;48.764;9.174;2023-08-24T03:07:06;0.90;;;0.90;;
673;SDS011;319;48.764;9.174;2023-08-24T03:09:36;0.80;;;0.80;;
673;SDS011;319;48.764;9.174;2023-08-24T03:12:04;0.90;;;0.90;;
673;SDS011;319;48.764;9.174;2023-08-24T03:14:31;0.90;;;0.90;;
673;SDS011;319;48.764;9.174;2023-08-24T03:16:58;0.80;;;0.80;;
673;SDS011;319;48.764;9.174;2023-08-24T03:19:25;0.90;;;0.90;;
673;SDS011;319;48.764;9.174;2023-08-24T03:21:52;0.90;;;0.90;;
673;SDS011;319;48.764;9.174;2023-08-24T03:24:19;0.80;;;0.80;;
673;SDS011;319;48.764;9.174;2023-08-24T03:26:47;0.80;;;0.80;;
673;SDS011;319;48.764;9.174;2023-08-24T03:29:14;0.80;;;0.80;;
673;SDS011;319;48.764;9.174;2023-08-24T03:31:41;0.80;;;0.80;;
673;SDS011;319;48.764;9.174;2023-08-24T03:34:08;0.80;;;0.80;;
673;SDS011;319;48.764;9.174;2023-08-24T03:36:35;0.90;;;0.90;;
673;SDS011;319;48.764;9.174;2023-08-24T03:39:03;0.83;;;0.83;;
673;SDS011;319;48.764;9.174;2023-08-24T03:41:30;0.83;;;0.83;;
673;SDS011;319;48.764;9.174;2023-08-24T03:43:58;0.80;;;0.80;;
673;SDS011;319;48.764;9.174;2023-08-24T03:46:25;0.80;;;0.80;;
673;SDS011;319;48.764;9.174;2023-08-24T03:48:52;0.80;;;0.80;;
673;SDS011;319;48.764;9.174;2023-08-24T03:51:19;0.80;;;0.80;;
673;SDS011;319;48.764;9.174;2023-08-24T03:53:46;0.90;;;0.90;;
673;SDS011;319;48.764;9.174;2023-08-24T03:56:13;0.80;;;0.80;;
673;SDS011;319;48.764;9.174;2023-08-24T03:58:40;0.90;;;0.90;;
673;SDS011;319;48.764;9.174;2023-08-24T04:01:11;0.90;;;0.90;;
673;SDS011;319;48.764;9.174;2023-08-24T04:03:37;0.80;;;0.80;;
673;SDS011;319;48.764;9.174;2023-08-24T04:06:04;0.90;;;0.90;;
673;SDS011;319;48.764;9.174;2023-08-24T04:08:32;1.10;;;1.10;;
673;SDS011;319;48.764;9.174;2023-08-24T04:10:59;1.10;;;1.10;;
673;SDS011;319;48.764;9.174;2023-08-24T04:13:26;1.10;;;1.10;;
673;SDS011;319;48.764;9.174;2023-08-24T04:15:56;1.00;;;1.00;;
673;SDS011;319;48.764;9.174;2023-08-24T04:18:25;1.00;;;1.00;;
673;SDS011;319;48.764;9.174;2023-08-24T04:20:52;1.00;;;1.00;;
673;SDS011;319;48.764;9.174;2023-08-24T04:23:23;1.00;;;1.00;;
673;SDS011;319;48.764;9.174;2023-08-24T04:25:51;1.00;;;1.00;;
673;SDS011;319;48.764;9.174;2023-08-24T04:28:18;1.30;;;1.30;;
673;SDS011;319;48.764;9.174;2023-08-24T04:30:49;1.20;;;1.20;;
673;SDS011;319;48.764;9.174;2023-08-24T04:33:16;1.30;;;1.30;;
673;SDS011;319;48.764;9.174;2023-08-24T04:35:46;1.40;;;1.40;;
673;SDS011;319;48.764;9.174;2023-08-24T04:38:14;1.30;;;1.30;;
673;SDS011;319;48.764;9.174;2023-08-24T04:40:45;1.33;;;1.33;;
673;SDS011;319;48.764;9.174;2023-08-24T04:43:12;1.40;;;1.40;;
673;SDS011;319;48.764;9.174;2023-08-24T04:45:39;1.30;;;1.30;;
673;SDS011;319;48.764;9.174;2023-08-24T04:48:06;1.20;;;1.20;;
673;SDS011;319;48.764;9.174;2023-08-24T04:50:33;1.40;;;1.40;;
673;SDS011;319;48.764;9.174;2023-08-24T04:53:01;1.30;;;1.30;;
673;SDS011;319;48.764;9.174;2023-08-24T04:55:29;1.20;;;1.20;;
673;SDS011;319;48.764;9.174;2023-08-24T04:57:56;1.20;;;1.20;;
673;SDS011;319;48.764;9.174;2023-08-24T05:00:22;1.80;;;1.70;;
673;SDS011;319;48.764;9.174;2023-08-24T05:02:49;1.50;;;1.50;;
673;SDS011;319;48.764;9.174;2023-08-24T05:05:16;1.40;;;1.40;;
673;SDS011;319;48.764;9.174;2023-08-24T05:07:43;1.70;;;1.70;;
673;SDS011;319;48.764;9.174;2023-08-24T05:10:12;1.30;;;1.30;;
673;SDS011;319;48.764;9.174;2023-08-24T05:12:39;1.50;;;1.50;;
673;SDS011;319;48.764;9.174;2023-08-24T05:15:06;1.50;;;1.50;;
673;SDS011;319;48.764;9.174;2023-08-24T05:17:33;1.40;;;1.40;;
673;SDS011;319;48.764;9.174;2023-08-24T05:20:00;1.40;;;1.40;;
673;SDS011;319;48.764;9.174;2023-08-24T05:22:28;1.30;;;1.30;;
673;SDS011;319;48.764;9.174;2023-08-24T05:24:55;1.20;;;1.20;;
673;SDS011;319;48.764;9.174;2023-08-24T05:27:24;1.40;;;1.40;;
673;SDS011;319;48.764;9.174;2023-08-24T05:29:51;1.10;;;1.10;;
673;SDS011;319;48.764;9.174;2023-08-24T05:32:17;1.17;;;1.17;;
673;SDS011;319;48.764;9.174;2023-08-24T05:34:44;1.00;;;1.00;;
673;SDS011;319;48.764;9.174;2023-08-24T05:37:11;1.10;;;1.10;;
673;SDS011;319;48.764;9.174;2023-08-24T05:39:38;2.00;;;2.00;;
673;SDS011;319;48.764;9.174;2023-08-24T05:42:05;2.10;;;2.10;;
673;SDS011;319;48.764;9.174;2023-08-24T05:44:34;2.00;;;2.00;;
673;SDS011;319;48.764;9.174;2023-08-24T05:47:01;3.10;;;3.00;;
673;SDS011;319;48.764;9.174;2023-08-24T05:49:28;1.50;;;1.50;;
673;SDS011;319;48.764;9.174;2023-08-24T05:51:55;1.30;;;1.30;;
673;SDS011;319;48.764;9.174;2023-08-24T05:54:22;1.13;;;1.13;;
673;SDS011;319;48.764;9.174;2023-08-24T05:56:49;2.20;;;2.20;;
673;SDS011;319;48.764;9.174;2023-08-24T05:59:16;1.90;;;1.90;;
673;SDS011;319;48.764;9.174;2023-08-24T06:01:44;2.93;;;2.83;;
673;SDS011;319;48.764;9.174;2023-08-24T06:04:11;2.90;;;2.80;;
673;SDS011;319;48.764;9.174;2023-08-24T06:06:38;3.70;;;3.60;;
673;SDS011;319;48.764;9.174;2023-08-24T06:09:05;6.00;;;5.90;;
673;SDS011;319;48.764;9.174;2023-08-24T06:11:32;7.07;;;6.87;;
673;SDS011;319;48.764;9.174;2023-08-24T06:13:59;9.50;;;9.30;;
673;SDS011;319;48.764;9.174;2023-08-24T06:16:26;5.80;;;5.70;;
673;SDS011;319;48.764;9.174;2023-08-24T06:18:55;8.40;;;8.20;;
673;SDS011;319;48.764;9.174;2023-08-24T06:21:21;12.80;;;12.50;;
673;SDS011;319;48.764;9.174;2023-08-24T06:23:48;0.90;;;0.90;;
673;SDS011;319;48.764;9.174;2023-08-24T06:26:16;1.10;;;1.10;;
673;SDS011;319;48.764;9.174;2023-08-24T06:28:44;12.30;;;12.00;;
673;SDS011;319;48.764;9.174;2023-08-24T06:31:11;16.90;;;16.40;;
673;SDS011;319;48.764;9.174;2023-08-24T06:33:38;19.10;;;18.50;;
673;SDS011;319;48.764;9.174;2023-08-24T06:36:06;18.77;;;18.17;;
673;SDS011;319;48.764;9.174;2023-08-24T06:38:34;18.70;;;18.10;;
673;SDS011;319;48.764;9.174;2023-08-24T06:41:02;18.80;;;18.20;;
673;SDS011;319;48.764;9.174;2023-08-24T06:43:37;18.40;;;17.90;;
673;SDS011;319;48.764;9.174;2023-08-24T06:46:05;17.93;;;17.43;;
673;SDS011;319;48.764;9.174;2023-08-24T06:48:33;15.43;;;15.03;;
673;SDS011;319;48.764;9.174;2023-08-24T06:51:00;18.20;;;17.70;;
673;SDS011;319;48.764;9.174;2023-08-24T06:53:28;19.00;;;18.40;;
673;SDS011;319;48.764;9.174;2023-08-24T06:55:55;18.80;;;18.20;;
673;SDS011;319;48.764;9.174;2023-08-24T06:58:23;17.17;;;16.67;;
673;SDS011;319;48.764;9.174;2023-08-24T07:00:50;17.63;;;17.13;;
673;SDS011;319;48.764;9.174;2023-08-24T07:03:17;18.00;;;17.50;;
673;SDS011;319;48.764;9.174;2023-08-24T07:05:44;17.40;;;16.90;;
673;SDS011;319;48.764;9.174;2023-08-24T07:08:12;18.97;;;18.37;;
673;SDS011;319;48.764;9.174;2023-08-24T07:10:42;15.80;;;15.40;;
673;SDS011;319;48.764;9.174;2023-08-24T07:13:09;17.73;;;17.23;;
673;SDS011;319;48.764;9.174;2023-08-24T07:15:36;18.00;;;17.50;;
673;SDS011;319;48.764;9.174;2023-08-24T07:18:03;17.93;;;17.43;;
673;SDS011;319;48.764;9.174;2023-08-24T07:20:32;18.90;;;18.33;;
673;SDS011;319;48.764;9.174;2023-08-24T07:22:59;11.50;;;11.20;;
673;SDS011;319;48.764;9.174;2023-08-24T07:25:28;9.17;;;8.97;;
673;SDS011;319;48.764;9.174;2023-08-24T07:27:57;10.20;;;9.90;;
673;SDS011;319;48.764;9.174;2023-08-24T07:30:24;17.63;;;17.13;;
673;SDS011;319;48.764;9.174;2023-08-24T07:32:52;19.27;;;18.67;;
673;SDS011;319;48.764;9.174;2023-08-24T07:35:19;22.37;;;21.67;;
673;SDS011;319;48.764;9.174;2023-08-24T07:37:49;21.07;;;20.47;;
673;SDS011;319;48.764;9.174;2023-08-24T07:40:17;19.83;;;19.23;;
673;SDS011;319;48.764;9.174;2023-08-24T07:42:44;19.43;;;18.83;;
673;SDS011;319;48.764;9.174;2023-08-24T07:45:13;1.07;;;1.07;;
673;SDS011;319;48.764;9.174;2023-08-24T07:47:40;2.67;;;2.60;;
673;SDS011;319;48.764;9.174;2023-08-24T07:50:07;0.80;;;0.80;;
673;SDS011;319;48.764;9.174;2023-08-24T07:52:36;19.40;;;18.80;;
673;SDS011;319;48.764;9.174;2023-08-24T07:55:05;17.47;;;16.97;;
673;SDS011;319;48.764;9.174;2023-08-24T07:57:33;0.70;;;0.70;;
673;SDS011;319;48.764;9.174;2023-08-24T08:00:00;0.80;;;0.80;;
673;SDS011;319;48.764;9.174;2023-08-24T08:02:28;0.77;;;0.77;;
673;SDS011;319;48.764;9.174;2023-08-24T08:04:57;0.70;;;0.70;;
673;SDS011;319;48.764;9.174;2023-08-24T08:07:24;0.73;;;0.73;;
673;SDS011;319;48.764;9.174;2023-08-24T08:09:51;0.80;;;0.80;;
673;SDS011;319;48.764;9.174;2023-08-24T08:12:18;0.70;;;0.70;;
673;SDS011;319;48.764;9.174;2023-08-24T08:14:45;11.80;;;11.50;;
673;SDS011;319;48.764;9.174;2023-08-24T08:17:12;9.48;;;9.27;;
673;SDS011;319;48.764;9.174;2023-08-24T08:19:40;10.40;;;10.10;;
673;SDS011;319;48.764;9.174;2023-08-24T08:22:07;0.80;;;0.80;;
673;SDS011;319;48.764;9.174;2023-08-24T08:24:34;0.80;;;0.80;;
673;SDS011;319;48.764;9.174;2023-08-24T08:27:01;0.80;;;0.80;;
673;SDS011;319;48.764;9.174;2023-08-24T08:29:28;0.80;;;0.80;;
673;SDS011;319;48.764;9.174;2023-08-24T08:31:55;0.80;;;0.80;;
673;SDS011;319;48.764;9.174;2023-08-24T08:34:22;0.80;;;0.80;;
673;SDS011;319;48.764;9.174;2023-08-24T08:36:51;11.00;;;10.70;;
673;SDS011;319;48.764;9.174;2023-08-24T08:39:18;10.18;;;9.88;;
673;SDS011;319;48.764;9.174;2023-08-24T08:41:45;7.65;;;7.45;;
673;SDS011;319;48.764;9.174;2023-08-24T08:44:13;10.65;;;10.35;;
673;SDS011;319;48.764;9.174;2023-08-24T08:46:41;12.50;;;12.20;;
673;SDS011;319;48.764;9.174;2023-08-24T08:49:08;13.75;;;13.35;;
673;SDS011;319;48.764;9.174;2023-08-24T08:51:36;13.20;;;12.90;;
673;SDS011;319;48.764;9.174;2023-08-24T08:54:05;12.60;;;12.30;;
673;SDS011;319;48.764;9.174;2023-08-24T08:56:32;10.20;;;9.90;;
673;SDS011;319;48.764;9.174;2023-08-24T08:58:59;11.68;;;11.38;;
673;SDS011;319;48.764;9.174;2023-08-24T09:01:28;13.15;;;12.75;;
673;SDS011;319;48.764;9.174;2023-08-24T09:03:56;11.38;;;11.07;;
673;SDS011;319;48.764;9.174;2023-08-24T09:06:24;13.52;;;13.13;;
673;SDS011;319;48.764;9.174;2023-08-24T09:08:51;10.10;;;9.80;;
673;SDS011;319;48.764;9.174;2023-08-24T09:11:20;16.10;;;15.70;;
673;SDS011;319;48.764;9.174;2023-08-24T09:13:49;14.03;;;13.63;;
673;SDS011;319;48.764;9.174;2023-08-24T09:16:16;8.53;;;8.33;;
673;SDS011;319;48.764;9.174;2023-08-24T09:18:45;0.70;;;0.70;;
673;SDS011;319;48.764;9.174;2023-08-24T09:21:14;0.70;;;0.70;;
673;SDS011;319;48.764;9.174;2023-08-24T09:23:43;0.70;;;0.70;;
673;SDS011;319;48.764;9.174;2023-08-24T09:26:11;0.70;;;0.70;;
673;SDS011;319;48.764;9.174;2023-08-24T09:28:40;0.80;;;0.80;;
673;SDS011;319;48.764;9.174;2023-08-24T09:31:11;6.27;;;6.10;;
673;SDS011;319;48.764;9.174;2023-08-24T09:33:39;1.40;;;1.40;;
673;SDS011;319;48.764;9.174;2023-08-24T09:36:11;0.80;;;0.80;;
673;SDS011;319;48.764;9.174;2023-08-24T09:38:45;0.80;;;0.80;;
673;SDS011;319;48.764;9.174;2023-08-24T09:41:12;0.80;;;0.80;;
673;SDS011;319;48.764;9.174;2023-08-24T09:43:41;0.80;;;0.80;;
673;SDS011;319;48.764;9.174;2023-08-24T09:46:08;0.80;;;0.80;;
673;SDS011;319;48.764;9.174;2023-08-24T09:48:35;0.80;;;0.80;;
673;SDS011;319;48.764;9.174;2023-08-24T09:51:03;0.80;;;0.80;;
673;SDS011;319;48.764;9.174;2023-08-24T09:53:32;0.80;;;0.80;;
673;SDS011;319;48.764;9.174;2023-08-24T09:56:03;1.00;;;1.00;;
673;SDS011;319;48.764;9.174;2023-08-24T09:58:32;0.80;;;0.80;;
673;SDS011;319;48.764;9.174;2023-08-24T10:01:01;0.80;;;0.80;;
673;SDS011;319;48.764;9.174;2023-08-24T10:03:32;0.83;;;0.83;;
673;SDS011;319;48.764;9.174;2023-08-24T10:06:02;0.80;;;0.80;;
673;SDS011;319;48.764;9.174;2023-08-24T10:08:32;0.90;;;0.90;;
673;SDS011;319;48.764;9.174;2023-08-24T10:11:02;0.80;;;0.80;;
673;SDS011;319;48.764;9.174;2023-08-24T10:13:33;0.80;;;0.80;;
673;SDS011;319;48.764;9.174;2023-08-24T10:16:05;0.70;;;0.70;;
673;SDS011;319;48.764;9.174;2023-08-24T10:18:33;0.80;;;0.80;;
673;SDS011;319;48.764;9.174;2023-08-24T10:21:00;0.80;;;0.80;;
673;SDS011;319;48.764;9.174;2023-08-24T10:23:28;0.70;;;0.70;;
673;SDS011;319;48.764;9.174;2023-08-24T10:25:56;0.80;;;0.80;;
673;SDS011;319;48.764;9.174;2023-08-24T10:28:25;0.80;;;0.80;;
673;SDS011;319;48.764;9.174;2023-08-24T10:30:53;0.80;;;0.80;;
673;SDS011;319;48.764;9.174;2023-08-24T10:33:23;0.80;;;0.80;;
673;SDS011;319;48.764;9.174;2023-08-24T10:35:51;0.80;;;0.80;;
673;SDS011;319;48.764;9.174;2023-08-24T10:38:25;0.80;;;0.80;;
673;SDS011;319;48.764;9.174;2023-08-24T10:40:52;0.80;;;0.80;;
673;SDS011;319;48.764;9.174;2023-08-24T10:43:20;0.90;;;0.90;;
673;SDS011;319;48.764;9.174;2023-08-24T10:45:54;1.00;;;1.00;;
673;SDS011;319;48.764;9.174;2023-08-24T10:48:24;0.80;;;0.80;;
673;SDS011;319;48.764;9.174;2023-08-24T10:53:45;2.07;;;1.97;;
673;SDS011;319;48.764;9.174;2023-08-24T10:56:13;0.80;;;0.80;;
673;SDS011;319;48.764;9.174;2023-08-24T10:58:41;0.80;;;0.80;;
673;SDS011;319;48.764;9.174;2023-08-24T11:01:13;0.80;;;0.80;;
673;SDS011;319;48.764;9.174;2023-08-24T11:03:46;0.80;;;0.80;;
673;SDS011;319;48.764;9.174;2023-08-24T11:06:20;0.70;;;0.70;;
673;SDS011;319;48.764;9.174;2023-08-24T11:08:48;0.80;;;0.80;;
673;SDS011;319;48.764;9.174;2023-08-24T11:11:18;4.57;;;4.47;;
673;SDS011;319;48.764;9.174;2023-08-24T11:16:43;0.80;;;0.80;;
673;SDS011;319;48.764;9.174;2023-08-24T11:19:12;0.80;;;0.80;;
673;SDS011;319;48.764;9.174;2023-08-24T11:21:40;0.80;;;0.80;;
673;SDS011;319;48.764;9.174;2023-08-24T11:24:09;0.90;;;0.90;;
673;SDS011;319;48.764;9.174;2023-08-24T11:26:39;5.33;;;5.23;;
673;SDS011;319;48.764;9.174;2023-08-24T11:29:07;1.33;;;1.33;;
673;SDS011;319;48.764;9.174;2023-08-24T11:31:34;1.27;;;1.27;;
673;SDS011;319;48.764;9.174;2023-08-24T11:34:01;1.20;;;1.20;;
673;SDS011;319;48.764;9.174;2023-08-24T11:36:31;1.10;;;1.10;;
673;SDS011;319;48.764;9.174;2023-08-24T11:39:07;4.00;;;3.90;;
673;SDS011;319;48.764;9.174;2023-08-24T11:41:40;4.70;;;4.60;;
673;SDS011;319;48.764;9.174;2023-08-24T11:44:07;0.70;;;0.70;;
673;SDS011;319;48.764;9.174;2023-08-24T11:46:34;2.00;;;2.00;;
673;SDS011;319;48.764;9.174;2023-08-24T11:54:50;0.70;;;0.70;;
673;SDS011;319;48.764;9.174;2023-08-24T11:57:18;0.80;;;0.80;;
673;SDS011;319;48.764;9.174;2023-08-24T11:59:45;0.70;;;0.70;;
673;SDS011;319;48.764;9.174;2023-08-24T12:02:13;0.75;;;0.75;;
673;SDS011;319;48.764;9.174;2023-08-24T12:04:42;0.70;;;0.70;;
673;SDS011;319;48.764;9.174;2023-08-24T12:07:09;0.80;;;0.80;;
673;SDS011;319;48.764;9.174;2023-08-24T12:09:37;0.70;;;0.70;;
673;SDS011;319;48.764;9.174;2023-08-24T12:12:06;0.80;;;0.80;;
673;SDS011;319;48.764;9.174;2023-08-24T12:14:42;0.60;;;0.60;;
673;SDS011;319;48.764;9.174;2023-08-24T12:17:09;8.13;;;7.93;;
673;SDS011;319;48.764;9.174;2023-08-24T12:19:37;0.90;;;0.90;;
673;SDS011;319;48.764;9.174;2023-08-24T12:22:14;1.05;;;1.05;;
673;SDS011;319;48.764;9.174;2023-08-24T12:24:44;2.75;;;2.65;;
673;SDS011;319;48.764;9.174;2023-08-24T12:27:18;1.70;;;1.70;;
673;SDS011;319;48.764;9.174;2023-08-24T12:29:45;1.08;;;1.08;;
673;SDS011;319;48.764;9.174;2023-08-24T12:32:13;0.90;;;0.90;;
673;SDS011;319;48.764;9.174;2023-08-24T12:34:41;0.80;;;0.80;;
673;SDS011;319;48.764;9.174;2023-08-24T12:37:08;0.70;;;0.70;;
673;SDS011;319;48.764;9.174;2023-08-24T12:39:35;0.70;;;0.70;;
673;SDS011;319;48.764;9.174;2023-08-24T12:42:03;0.70;;;0.70;;
673;SDS011;319;48.764;9.174;2023-08-24T12:44:31;0.70;;;0.70;;
673;SDS011;319;48.764;9.174;2023-08-24T12:46:59;0.70;;;0.70;;
673;SDS011;319;48.764;9.174;2023-08-24T12:49:26;0.70;;;0.70;;
673;SDS011;319;48.764;9.174;2023-08-24T12:51:53;0.70;;;0.70;;
673;SDS011;319;48.764;9.174;2023-08-24T12:54:20;0.90;;;0.90;;
673;SDS011;319;48.764;9.174;2023-08-24T12:56:49;0.60;;;0.60;;
673;SDS011;319;48.764;9.174;2023-08-24T12:59:19;0.70;;;0.70;;
673;SDS011;319;48.764;9.174;2023-08-24T13:01:48;0.80;;;0.80;;
673;SDS011;319;48.764;9.174;2023-08-24T13:04:15;1.98;;;1.98;;
673;SDS011;319;48.764;9.174;2023-08-24T13:06:42;1.40;;;1.40;;
673;SDS011;319;48.764;9.174;2023-08-24T13:09:09;0.80;;;0.80;;
673;SDS011;319;48.764;9.174;2023-08-24T13:11:37;1.40;;;1.40;;
673;SDS011;319;48.764;9.174;2023-08-24T13:14:04;1.42;;;1.42;;
673;SDS011;319;48.764;9.174;2023-08-24T13:16:30;1.60;;;1.60;;
673;SDS011;319;48.764;9.174;2023-08-24T13:18:59;1.60;;;1.60;;
673;SDS011;319;48.764;9.174;2023-08-24T13:21:26;0.98;;;0.98;;
673;SDS011;319;48.764;9.174;2023-08-24T13:24:16;3.60;;;3.50;;
673;SDS011;319;48.764;9.174;2023-08-24T13:26:43;8.23;;;8.02;;
673;SDS011;319;48.764;9.174;2023-08-24T13:29:10;6.95;;;6.75;;
673;SDS011;319;48.764;9.174;2023-08-24T13:31:37;0.80;;;0.80;;
673;SDS011;319;48.764;9.174;2023-08-24T13:34:06;0.80;;;0.80;;
673;SDS011;319;48.764;9.174;2023-08-24T13:36:34;0.70;;;0.70;;
673;SDS011;319;48.764;9.174;2023-08-24T13:39:01;0.70;;;0.70;;
673;SDS011;319;48.764;9.174;2023-08-24T13:41:29;0.70;;;0.70;;
673;SDS011;319;48.764;9.174;2023-08-24T13:43:57;0.70;;;0.70;;
673;SDS011;319;48.764;9.174;2023-08-24T13:46:24;0.70;;;0.70;;
673;SDS011;319;48.764;9.174;2023-08-24T13:48:50;0.70;;;0.70;;
673;SDS011;319;48.764;9.174;2023-08-24T13:51:19;0.70;;;0.70;;
673;SDS011;319;48.764;9.174;2023-08-24T13:53:46;0.70;;;0.70;;
673;SDS011;319;48.764;9.174;2023-08-24T13:56:14;0.70;;;0.70;;
673;SDS011;319;48.764;9.174;2023-08-24T13:58:43;0.70;;;0.70;;
673;SDS011;319;48.764;9.174;2023-08-24T14:01:14;0.70;;;0.70;;
673;SDS011;319;48.764;9.174;2023-08-24T14:03:41;0.70;;;0.70;;
673;SDS011;319;48.764;9.174;2023-08-24T14:06:09;0.70;;;0.70;;
673;SDS011;319;48.764;9.174;2023-08-24T14:08:40;0.70;;;0.70;;
673;SDS011;319;48.764;9.174;2023-08-24T14:11:07;0.70;;;0.70;;
673;SDS011;319;48.764;9.174;2023-08-24T14:13:37;0.80;;;0.80;;
673;SDS011;319;48.764;9.174;2023-08-24T14:16:04;0.70;;;0.70;;
673;SDS011;319;48.764;9.174;2023-08-24T14:18:31;0.70;;;0.70;;
673;SDS011;319;48.764;9.174;2023-08-24T14:21:01;0.70;;;0.70;;
673;SDS011;319;48.764;9.174;2023-08-24T14:23:28;0.70;;;0.70;;
673;SDS011;319;48.764;9.174;2023-08-24T14:25:57;0.70;;;0.70;;
673;SDS011;319;48.764;9.174;2023-08-24T14:28:24;0.70;;;0.70;;
673;SDS011;319;48.764;9.174;2023-08-24T14:31:14;0.80;;;0.80;;
673;SDS011;319;48.764;9.174;2023-08-24T14:33:42;0.70;;;0.70;;
673;SDS011;319;48.764;9.174;2023-08-24T14:36:09;0.70;;;0.70;;
673;SDS011;319;48.764;9.174;2023-08-24T14:38:38;0.70;;;0.70;;
673;SDS011;319;48.764;9.174;2023-08-24T14:41:08;0.70;;;0.70;;
673;SDS011;319;48.764;9.174;2023-08-24T14:43:36;0.75;;;0.75;;
673;SDS011;319;48.764;9.174;2023-08-24T14:46:04;0.70;;;0.70;;
673;SDS011;319;48.764;9.174;2023-08-24T14:48:31;0.70;;;0.70;;
673;SDS011;319;48.764;9.174;2023-08-24T14:50:58;0.70;;;0.70;;
673;SDS011;319;48.764;9.174;2023-08-24T14:53:26;9.25;;;9.05;;
673;SDS011;319;48.764;9.174;2023-08-24T14:55:54;2.42;;;2.40;;
673;SDS011;319;48.764;9.174;2023-08-24T14:58:23;11.45;;;11.15;;
673;SDS011;319;48.764;9.174;2023-08-24T15:00:52;6.23;;;6.03;;
673;SDS011;319;48.764;9.174;2023-08-24T15:03:21;2.33;;;2.23;;
673;SDS011;319;48.764;9.174;2023-08-24T15:05:55;0.70;;;0.70;;
673;SDS011;319;48.764;9.174;2023-08-24T15:08:23;0.70;;;0.70;;
673;SDS011;319;48.764;9.174;2023-08-24T15:10:50;11.87;;;11.57;;
673;SDS011;319;48.764;9.174;2023-08-24T15:13:19;1.90;;;1.90;;
673;SDS011;319;48.764;9.174;2023-08-24T15:15:48;1.90;;;1.87;;
673;SDS011;319;48.764;9.174;2023-08-24T15:18:15;3.07;;;2.97;;
673;SDS011;319;48.764;9.174;2023-08-24T15:20:42;1.10;;;1.10;;
673;SDS011;319;48.764;9.174;2023-08-24T15:23:09;1.20;;;1.20;;
673;SDS011;319;48.764;9.174;2023-08-24T15:25:46;2.17;;;2.17;;
673;SDS011;319;48.764;9.174;2023-08-24T15:28:13;0.80;;;0.80;;
673;SDS011;319;48.764;9.174;2023-08-24T15:30:40;0.80;;;0.80;;
673;SDS011;319;48.764;9.174;2023-08-24T15:33:09;0.80;;;0.80;;
673;SDS011;319;48.764;9.174;2023-08-24T15:35:39;0.80;;;0.80;;
673;SDS011;319;48.764;9.174;2023-08-24T15:38:07;2.33;;;2.27;;
673;SDS011;319;48.764;9.174;2023-08-24T15:40:34;0.90;;;0.90;;
673;SDS011;319;48.764;9.174;2023-08-24T15:43:02;0.80;;;0.80;;
673;SDS011;319;48.764;9.174;2023-08-24T15:45:30;0.80;;;0.80;;
673;SDS011;319;48.764;9.174;2023-08-24T15:47:58;0.90;;;0.90;;
673;SDS011;319;48.764;9.174;2023-08-24T15:50:28;6.07;;;5.97;;
673;SDS011;319;48.764;9.174;2023-08-24T15:52:55;5.50;;;5.40;;
673;SDS011;319;48.764;9.174;2023-08-24T15:55:27;7.67;;;7.47;;
673;SDS011;319;48.764;9.174;2023-08-24T16:00:24;0.80;;;0.80;;
673;SDS011;319;48.764;9.174;2023-08-24T16:02:51;10.93;;;10.63;;